Illinois River (Oklahoma), Tahlequah (07196500)

StateOklahomaLatestGood (896 cfs)
RiverIllinois RiverRatingObservedEstimated
Updated2021-04-10 21:30 (39 minutes ago)Flood - The river is flooding. Obstacles can be treacherous or deadly. The river should be avoided at this stage for casual trips and definitely for the inexperienced. Trips should be attempted only with protective gear and equipment.Flood(none)3443
Discharge896 cfs (median: 863 cfs)High - The river is high and potentially dangerous, especially for the young and / or inexperienced. Normal stream obstacles are sometimes difficult to navigate. Extended distances can be attempted, but canoe travel may not be advisable.High(none)1734
Height5.84 feetGood - Conditions are ideal for a canoe or kayak. Boats typically will drag on fewer than one-quarter of riffles, if at all, and portages are unnecessary or rare. Normal float lengths can be attempted without a problem.Good300924
TrendSteady (rising over 24 hours)Low - River is low but can still be floated. Some riffles are okay but most come with significant dragging and might need a portage. Float lengths should be reduced to accommodate low flow, dragging, and portages.Low(none)607
USGSExternal icon USGS Site (External icon Google Maps)Poor - River is too low to float comfortably. Most or all riffles will drag or must be portaged and some obstacles (such as slick shelf rock) cause undue problems. Avoid the river at this stage for casual paddling trips.Poor(none)234

Trending Data

Plot Image

Trips for Illinois River (Oklahoma), Tahlequah (07196500)

DateStartEndDistanceConditionDischargeHeightFishingDetails

A total of 0 rows are displayed.

Condition Descriptions

Fishing Conditions

Fish Species

Notes

Classic Trip List

The classic River Trips application is still available for use. It is updated with the new system using a data retrofit. It is no longer maintained. The original River Trips application is no longer updated (as of 1 Dec 2016) but can be checked for errors or for the condition of the data before it was converted to the new system.

Gauge Data Table

ObservationHeightDischargeMaximum
Discharge
Minimum
Discharge
Mean
Discharge
P05P10P20P25P50
(Median)
P75P80P90P95
2021-04-10 21:30 5.84 896 9820 (2008) 44 (1956) 1450 184 298 395 534 863 1580 1750 3800 6370
2021-04-10 20:30 5.84 896 9820 (2008) 44 (1956) 1450 184 298 395 534 863 1580 1750 3800 6370
2021-04-10 19:30 5.84 896 9820 (2008) 44 (1956) 1450 184 298 395 534 863 1580 1750 3800 6370
2021-04-10 18:30 5.85 903 9820 (2008) 44 (1956) 1450 184 298 395 534 863 1580 1750 3800 6370
2021-04-10 17:30 5.85 903 9820 (2008) 44 (1956) 1450 184 298 395 534 863 1580 1750 3800 6370
2021-04-10 16:30 5.85 903 9820 (2008) 44 (1956) 1450 184 298 395 534 863 1580 1750 3800 6370
2021-04-10 15:30 5.85 903 9820 (2008) 44 (1956) 1450 184 298 395 534 863 1580 1750 3800 6370
2021-04-10 14:30 5.84 896 9820 (2008) 44 (1956) 1450 184 298 395 534 863 1580 1750 3800 6370
2021-04-10 13:30 5.84 896 9820 (2008) 44 (1956) 1450 184 298 395 534 863 1580 1750 3800 6370
2021-04-10 12:30 5.82 882 9820 (2008) 44 (1956) 1450 184 298 395 534 863 1580 1750 3800 6370
2021-04-10 11:30 5.85 903 9820 (2008) 44 (1956) 1450 184 298 395 534 863 1580 1750 3800 6370
2021-04-10 10:30 5.80 868 9820 (2008) 44 (1956) 1450 184 298 395 534 863 1580 1750 3800 6370
2021-04-10 09:30 5.82 882 9820 (2008) 44 (1956) 1450 184 298 395 534 863 1580 1750 3800 6370
2021-04-10 08:30 5.81 875 9820 (2008) 44 (1956) 1450 184 298 395 534 863 1580 1750 3800 6370
2021-04-10 07:30 5.78 855 9820 (2008) 44 (1956) 1450 184 298 395 534 863 1580 1750 3800 6370
2021-04-10 06:30 5.80 868 9820 (2008) 44 (1956) 1450 184 298 395 534 863 1580 1750 3800 6370
2021-04-10 05:30 5.80 868 9820 (2008) 44 (1956) 1450 184 298 395 534 863 1580 1750 3800 6370
2021-04-10 04:30 5.79 861 9820 (2008) 44 (1956) 1450 184 298 395 534 863 1580 1750 3800 6370
2021-04-10 03:30 5.79 861 9820 (2008) 44 (1956) 1450 184 298 395 534 863 1580 1750 3800 6370
2021-04-10 02:30 5.76 841 9820 (2008) 44 (1956) 1450 184 298 395 534 863 1580 1750 3800 6370
2021-04-10 01:30 5.77 848 9820 (2008) 44 (1956) 1450 184 298 395 534 863 1580 1750 3800 6370
2021-04-10 00:30 5.79 861 9820 (2008) 44 (1956) 1450 184 298 395 534 863 1580 1750 3800 6370
2021-04-09 23:30 5.79 861 15800 (1986) 40 (1956) 1500 193 305 408 499 908 1690 1890 2560 4070
2021-04-09 22:30 5.79 861 15800 (1986) 40 (1956) 1500 193 305 408 499 908 1690 1890 2560 4070
2021-04-09 21:30 5.80 868 15800 (1986) 40 (1956) 1500 193 305 408 499 908 1690 1890 2560 4070
2021-04-09 20:30 5.76 841 15800 (1986) 40 (1956) 1500 193 305 408 499 908 1690 1890 2560 4070
2021-04-09 19:30 5.76 841 15800 (1986) 40 (1956) 1500 193 305 408 499 908 1690 1890 2560 4070
2021-04-09 18:30 5.74 827 15800 (1986) 40 (1956) 1500 193 305 408 499 908 1690 1890 2560 4070
2021-04-09 17:30 5.75 834 15800 (1986) 40 (1956) 1500 193 305 408 499 908 1690 1890 2560 4070
2021-04-09 16:30 5.77 848 15800 (1986) 40 (1956) 1500 193 305 408 499 908 1690 1890 2560 4070
2021-04-09 15:30 5.79 861 15800 (1986) 40 (1956) 1500 193 305 408 499 908 1690 1890 2560 4070
2021-04-09 14:30 5.78 855 15800 (1986) 40 (1956) 1500 193 305 408 499 908 1690 1890 2560 4070
2021-04-09 13:30 5.78 855 15800 (1986) 40 (1956) 1500 193 305 408 499 908 1690 1890 2560 4070
2021-04-09 12:30 5.78 855 15800 (1986) 40 (1956) 1500 193 305 408 499 908 1690 1890 2560 4070
2021-04-09 11:30 5.79 861 15800 (1986) 40 (1956) 1500 193 305 408 499 908 1690 1890 2560 4070
2021-04-09 10:30 5.79 861 15800 (1986) 40 (1956) 1500 193 305 408 499 908 1690 1890 2560 4070
2021-04-09 09:30 5.76 841 15800 (1986) 40 (1956) 1500 193 305 408 499 908 1690 1890 2560 4070
2021-04-09 08:30 5.78 855 15800 (1986) 40 (1956) 1500 193 305 408 499 908 1690 1890 2560 4070
2021-04-09 07:30 5.76 841 15800 (1986) 40 (1956) 1500 193 305 408 499 908 1690 1890 2560 4070
2021-04-09 06:30 5.77 848 15800 (1986) 40 (1956) 1500 193 305 408 499 908 1690 1890 2560 4070
2021-04-09 05:30 5.76 841 15800 (1986) 40 (1956) 1500 193 305 408 499 908 1690 1890 2560 4070
2021-04-09 04:30 5.75 834 15800 (1986) 40 (1956) 1500 193 305 408 499 908 1690 1890 2560 4070
2021-04-09 03:30 5.75 834 15800 (1986) 40 (1956) 1500 193 305 408 499 908 1690 1890 2560 4070
2021-04-09 02:30 5.75 834 15800 (1986) 40 (1956) 1500 193 305 408 499 908 1690 1890 2560 4070
2021-04-09 01:30 5.75 834 15800 (1986) 40 (1956) 1500 193 305 408 499 908 1690 1890 2560 4070
2021-04-09 00:30 5.73 821 15800 (1986) 40 (1956) 1500 193 305 408 499 908 1690 1890 2560 4070
2021-04-08 23:30 5.73 821 6050 (1965) 37 (1956) 1210 205 287 422 507 934 1570 1790 2740 3130
2021-04-08 22:30 5.73 821 6050 (1965) 37 (1956) 1210 205 287 422 507 934 1570 1790 2740 3130
2021-04-08 21:30 5.75 834 6050 (1965) 37 (1956) 1210 205 287 422 507 934 1570 1790 2740 3130
2021-04-08 20:30 5.74 827 6050 (1965) 37 (1956) 1210 205 287 422 507 934 1570 1790 2740 3130
2021-04-08 19:30 5.73 821 6050 (1965) 37 (1956) 1210 205 287 422 507 934 1570 1790 2740 3130
2021-04-08 18:30 5.73 821 6050 (1965) 37 (1956) 1210 205 287 422 507 934 1570 1790 2740 3130
2021-04-08 17:30 5.73 821 6050 (1965) 37 (1956) 1210 205 287 422 507 934 1570 1790 2740 3130
2021-04-08 16:30 5.73 821 6050 (1965) 37 (1956) 1210 205 287 422 507 934 1570 1790 2740 3130
2021-04-08 15:30 5.74 827 6050 (1965) 37 (1956) 1210 205 287 422 507 934 1570 1790 2740 3130
2021-04-08 14:30 5.73 821 6050 (1965) 37 (1956) 1210 205 287 422 507 934 1570 1790 2740 3130
2021-04-08 13:30 5.73 821 6050 (1965) 37 (1956) 1210 205 287 422 507 934 1570 1790 2740 3130
2021-04-08 12:30 5.74 827 6050 (1965) 37 (1956) 1210 205 287 422 507 934 1570 1790 2740 3130
2021-04-08 11:30 5.74 827 6050 (1965) 37 (1956) 1210 205 287 422 507 934 1570 1790 2740 3130
2021-04-08 10:30 5.75 834 6050 (1965) 37 (1956) 1210 205 287 422 507 934 1570 1790 2740 3130
2021-04-08 09:30 5.76 841 6050 (1965) 37 (1956) 1210 205 287 422 507 934 1570 1790 2740 3130
2021-04-08 08:30 5.76 841 6050 (1965) 37 (1956) 1210 205 287 422 507 934 1570 1790 2740 3130
2021-04-08 07:30 5.77 848 6050 (1965) 37 (1956) 1210 205 287 422 507 934 1570 1790 2740 3130
2021-04-08 06:30 5.76 841 6050 (1965) 37 (1956) 1210 205 287 422 507 934 1570 1790 2740 3130
2021-04-08 05:30 5.77 848 6050 (1965) 37 (1956) 1210 205 287 422 507 934 1570 1790 2740 3130
2021-04-08 03:30 5.77 848 6050 (1965) 37 (1956) 1210 205 287 422 507 934 1570 1790 2740 3130
2021-04-08 02:30 5.78 855 6050 (1965) 37 (1956) 1210 205 287 422 507 934 1570 1790 2740 3130
2021-04-08 01:30 5.76 841 6050 (1965) 37 (1956) 1210 205 287 422 507 934 1570 1790 2740 3130
2021-04-08 00:30 5.76 841 6050 (1965) 37 (1956) 1210 205 287 422 507 934 1570 1790 2740 3130
2021-04-07 23:30 5.78 855 11000 (1965) 38 (1956) 1330 202 296 422 467 886 1650 2050 2900 3670
2021-04-07 22:30 5.76 841 11000 (1965) 38 (1956) 1330 202 296 422 467 886 1650 2050 2900 3670
2021-04-07 21:30 5.76 841 11000 (1965) 38 (1956) 1330 202 296 422 467 886 1650 2050 2900 3670
2021-04-07 18:30 5.77 848 11000 (1965) 38 (1956) 1330 202 296 422 467 886 1650 2050 2900 3670
2021-04-07 17:30 5.76 841 11000 (1965) 38 (1956) 1330 202 296 422 467 886 1650 2050 2900 3670
2021-04-07 16:30 5.77 848 11000 (1965) 38 (1956) 1330 202 296 422 467 886 1650 2050 2900 3670
2021-04-07 15:30 5.76 841 11000 (1965) 38 (1956) 1330 202 296 422 467 886 1650 2050 2900 3670
2021-04-07 14:30 5.76 841 11000 (1965) 38 (1956) 1330 202 296 422 467 886 1650 2050 2900 3670
2021-04-07 13:30 5.78 855 11000 (1965) 38 (1956) 1330 202 296 422 467 886 1650 2050 2900 3670
2021-04-07 12:30 5.76 841 11000 (1965) 38 (1956) 1330 202 296 422 467 886 1650 2050 2900 3670
2021-04-07 11:30 5.77 848 11000 (1965) 38 (1956) 1330 202 296 422 467 886 1650 2050 2900 3670
2021-04-07 10:30 5.76 841 11000 (1965) 38 (1956) 1330 202 296 422 467 886 1650 2050 2900 3670
2021-04-07 09:30 5.75 834 11000 (1965) 38 (1956) 1330 202 296 422 467 886 1650 2050 2900 3670
2021-04-07 08:30 5.78 855 11000 (1965) 38 (1956) 1330 202 296 422 467 886 1650 2050 2900 3670
2021-04-07 07:30 5.77 848 11000 (1965) 38 (1956) 1330 202 296 422 467 886 1650 2050 2900 3670
2021-04-07 06:30 5.78 855 11000 (1965) 38 (1956) 1330 202 296 422 467 886 1650 2050 2900 3670
2021-04-07 05:30 5.79 861 11000 (1965) 38 (1956) 1330 202 296 422 467 886 1650 2050 2900 3670
2021-04-07 04:30 5.78 855 11000 (1965) 38 (1956) 1330 202 296 422 467 886 1650 2050 2900 3670
2021-04-07 03:30 5.78 855 11000 (1965) 38 (1956) 1330 202 296 422 467 886 1650 2050 2900 3670
2021-04-07 02:30 5.78 855 11000 (1965) 38 (1956) 1330 202 296 422 467 886 1650 2050 2900 3670
2021-04-07 01:30 5.77 848 11000 (1965) 38 (1956) 1330 202 296 422 467 886 1650 2050 2900 3670
2021-04-07 00:30 5.77 848 11000 (1965) 38 (1956) 1330 202 296 422 467 886 1650 2050 2900 3670

A total of 91 rows are displayed for years 1936 through 2020.